Time;durP1;ratioP1;P1;durP2;ratioP2;P2;SDS_P1;SDS_P2;PMS_P1;PMS_P2;Temp;Humidity;BMP_temperature;BMP_pressure;BME280_temperature;BME280_humidity;BME280_pressure;Samples;Min_cycle;Max_cycle;Signal;HPM_P1;HPM_P2
2022/05/06 00:01:39;;;;;;;19.77;15.52;;;14.70;99.90;;;14.67;100.00;101101.41;4977391;28;20053;-77
2022/05/06 00:04:07;;;;;;;23.60;15.77;;;14.60;99.90;;;14.72;100.00;101107.50;4981452;28;20039;-78
2022/05/06 00:06:34;;;;;;;20.40;15.05;;;14.60;99.90;;;14.70;100.00;101099.56;4997990;28;20054;-77
2022/05/06 00:09:05;;;;;;;21.20;16.88;;;15.20;99.90;;;14.73;100.00;101103.94;4979932;28;20475;-80
2022/05/06 00:11:32;;;;;;;16.67;13.80;;;14.60;99.90;;;14.78;100.00;101109.97;4978721;28;20117;-78
2022/05/06 00:14:00;;;;;;;19.35;15.07;;;14.60;99.90;;;14.64;100.00;101110.34;4991760;28;20058;-79
2022/05/06 00:16:28;;;;;;;16.73;14.60;;;14.60;99.90;;;14.70;100.00;101107.50;4992726;28;20438;-80
2022/05/06 00:18:55;;;;;;;17.60;15.43;;;14.60;99.90;;;14.70;100.00;101117.25;4991612;28;20061;-79
2022/05/06 00:21:22;;;;;;;18.58;15.20;;;14.60;99.90;;;14.73;100.00;101112.72;4994016;28;20045;-80
2022/05/06 00:23:49;;;;;;;19.50;15.65;;;14.60;99.90;;;14.64;100.00;101110.34;4976359;28;20080;-79
2022/05/06 00:26:16;;;;;;;15.90;14.20;;;16.00;99.90;;;14.72;100.00;101111.00;4991790;28;20117;-78
2022/05/06 00:28:44;;;;;;;17.08;13.88;;;14.60;99.90;;;14.66;100.00;101120.88;4975391;28;20129;-78
2022/05/06 00:31:12;;;;;;;15.57;13.23;;;14.60;99.90;;;14.67;100.00;101120.84;4960643;28;20495;-80
2022/05/06 00:33:40;;;;;;;19.20;15.45;;;14.60;99.90;;;14.61;100.00;101118.38;4991663;28;20062;-79
2022/05/06 00:36:07;;;;;;;22.40;15.02;;;15.00;99.90;;;14.64;100.00;101115.63;4977443;28;20104;-79
2022/05/06 00:38:34;;;;;;;19.00;13.98;;;14.80;99.90;;;14.55;100.00;101121.19;4993255;28;20069;-80
2022/05/06 00:41:02;;;;;;;18.55;13.70;;;14.50;99.90;;;14.58;100.00;101121.97;4977039;28;20046;-80
2022/05/06 00:43:29;;;;;;;17.63;14.30;;;15.10;99.90;;;14.58;100.00;101119.34;4992984;28;20655;-80
2022/05/06 00:45:57;;;;;;;18.90;13.68;;;14.50;99.90;;;14.53;100.00;101120.38;4977295;28;20164;-80
2022/05/06 00:48:31;;;;;;;16.50;14.73;;;14.50;99.90;;;14.38;100.00;101126.97;4993629;28;20097;-80
2022/05/06 00:51:03;;;;;;;16.23;13.95;;;14.50;99.90;;;14.50;100.00;101129.25;4976647;28;20050;-80
2022/05/06 00:53:31;;;;;;;21.63;14.90;;;14.50;99.90;;;14.54;100.00;101122.09;4977720;28;20054;-80
2022/05/06 00:55:58;;;;;;;18.20;14.32;;;15.30;99.90;;;14.54;100.00;101119.47;4976629;28;20141;-79
2022/05/06 00:58:30;;;;;;;17.08;13.70;;;14.50;99.90;;;14.55;100.00;101113.25;4976863;28;20057;-80
2022/05/06 01:00:57;;;;;;;16.23;14.52;;;14.50;99.90;;;14.49;100.00;101114.28;4976462;28;20104;-78
2022/05/06 01:03:24;;;;;;;19.45;15.38;;;14.40;99.90;;;14.53;100.00;101109.78;4976234;28;20056;-79
2022/05/06 01:05:52;;;;;;;18.77;13.25;;;14.50;99.90;;;14.52;100.00;101114.22;5008792;28;20050;-78
2022/05/06 01:08:20;;;;;;;17.08;15.10;;;14.50;99.90;;;14.54;100.00;101112.41;4976410;28;20137;-80
2022/05/06 01:10:48;;;;;;;19.10;14.75;;;14.50;99.90;;;14.54;100.00;101108.88;4975798;28;20050;-79
2022/05/06 01:13:18;;;;;;;18.63;14.63;;;14.40;99.90;;;14.56;100.00;101113.22;4976607;28;20487;-79
2022/05/06 01:15:48;;;;;;;20.90;15.57;;;14.40;99.90;;;14.48;100.00;101111.69;5008366;28;20078;-80
2022/05/06 01:18:20;;;;;;;15.32;13.50;;;14.50;99.90;;;14.52;100.00;101108.03;4992119;28;20061;-80
2022/05/06 01:20:52;;;;;;;15.90;13.25;;;14.50;99.90;;;14.54;100.00;101111.50;5007371;28;20531;-79
2022/05/06 01:23:22;;;;;;;15.32;13.75;;;14.60;99.90;;;14.51;100.00;101114.25;4991168;28;20130;-80
2022/05/06 01:25:49;;;;;;;17.48;13.70;;;14.40;99.90;;;14.44;100.00;101106.50;4993580;28;20058;-79
2022/05/06 01:28:19;;;;;;;15.55;12.82;;;14.40;99.90;;;14.46;100.00;101107.31;5007703;28;20057;-79
2022/05/06 01:30:48;;;;;;;19.07;14.27;;;14.40;99.90;;;14.44;100.00;101113.56;5007595;28;20113;-78
2022/05/06 01:33:21;;;;;;;14.38;12.35;;;14.40;99.90;;;14.48;100.00;101103.75;5007842;28;20054;-79
2022/05/06 01:35:59;;;;;;;17.42;13.55;;;14.40;99.90;;;14.42;100.00;101123.34;4992559;28;20060;-80
2022/05/06 01:38:55;;;;;;;14.70;13.05;;;15.20;99.90;;;14.50;100.00;101113.38;4991796;28;20084;-79
2022/05/06 01:41:28;;;;;;;16.70;13.75;;;14.40;99.90;;;14.46;100.00;101115.25;4975367;28;20054;-78
2022/05/06 01:44:09;;;;;;;16.75;12.48;;;14.40;99.90;;;14.44;100.00;101103.84;5006768;28;20039;-80
2022/05/06 01:46:38;;;;;;;;;;;14.90;99.90;;;14.47;100.00;101110.81;5009783;28;20042;-79
2022/05/06 01:49:11;;;;;;;15.45;13.35;;;14.40;99.90;;;14.40;100.00;101117.22;4991598;28;19932;-80
2022/05/06 01:51:42;;;;;;;16.52;13.02;;;14.60;99.90;;;14.45;100.00;101124.13;4992997;28;20081;-79
2022/05/06 01:54:13;;;;;;;15.88;12.43;;;15.50;99.90;;;14.48;100.00;101117.84;5008029;28;20082;-79
2022/05/06 01:56:46;;;;;;;13.73;12.32;;;14.40;99.90;;;14.41;100.00;101113.66;4992823;28;20046;-79
2022/05/06 01:59:16;;;;;;;16.52;12.80;;;14.30;99.90;;;14.34;100.00;101110.31;5007779;28;20062;-79
2022/05/06 02:01:43;;;;;;;16.48;12.77;;;14.30;99.90;;;14.35;100.00;101114.69;4992461;28;20051;-79
2022/05/06 02:07:03;;;;;;;16.92;12.77;;;14.30;99.90;;;14.37;100.00;101117.31;5007884;28;20050;-80
2022/05/06 02:09:30;;;;;;;16.05;12.38;;;14.30;99.90;;;14.38;100.00;101126.97;5006625;28;20043;-79
2022/05/06 02:12:05;;;;;;;19.38;14.35;;;14.30;99.90;;;14.32;100.00;101120.06;5005554;28;20046;-79
2022/05/06 02:14:52;;;;;;;15.45;13.05;;;14.30;99.90;;;14.33;100.00;101127.09;4984828;28;20427;-80
2022/05/06 02:17:34;;;;;;;17.27;14.15;;;15.00;99.90;;;14.32;100.00;101122.72;4986555;28;20138;-78
2022/05/06 02:20:28;;;;;;;16.40;13.07;;;14.30;99.90;;;14.29;100.00;101118.38;4981413;28;20072;-79
2022/05/06 02:23:04;;;;;;;18.73;13.13;;;14.20;99.90;;;14.28;100.00;101121.94;4986463;28;20073;-80
2022/05/06 02:25:35;;;;;;;14.23;12.25;;;14.30;99.90;;;14.23;100.00;101126.50;4970474;28;20146;-79
2022/05/06 02:28:09;;;;;;;18.35;14.90;;;14.20;99.90;;;14.24;100.00;101128.22;4987146;28;20051;-80
2022/05/06 02:33:26;;;;;;;16.35;13.30;;;14.20;99.90;;;14.24;100.00;101116.75;4986859;28;20419;-79
2022/05/06 02:36:03;;;;;;;17.08;14.40;;;14.20;99.90;;;14.21;100.00;101125.66;4986863;28;20058;-78
2022/05/06 02:38:33;;;;;;;18.20;13.88;;;14.20;99.90;;;14.20;100.00;101123.91;4986732;28;20047;-80
2022/05/06 02:41:01;;;;;;;16.50;14.02;;;14.20;99.90;;;14.26;100.00;101122.88;4969417;28;20818;-78
2022/05/06 02:43:37;;;;;;;19.63;14.43;;;14.20;99.90;;;14.25;100.00;101131.72;4984801;28;20043;-79
2022/05/06 02:46:04;;;;;;;17.35;13.23;;;14.20;99.90;;;14.17;100.00;101131.94;4957622;28;20047;-78
2022/05/06 02:48:32;;;;;;;14.77;13.27;;;14.10;99.90;;;14.12;100.00;101136.50;5005027;28;20074;-78
2022/05/06 02:50:59;;;;;;;14.80;13.25;;;14.20;99.90;;;14.15;100.00;101125.81;4972511;28;20074;-78
2022/05/06 02:53:32;;;;;;;16.70;13.02;;;14.10;99.90;;;14.17;100.00;101131.94;4958002;28;20142;-78
2022/05/06 02:56:00;;;;;;;21.42;13.05;;;14.10;99.90;;;14.16;100.00;101133.72;4993167;28;20117;-77
2022/05/06 02:58:37;;;;;;;15.18;13.10;;;15.00;99.90;;;14.14;100.00;101130.25;4963671;28;20047;-78
2022/05/06 03:01:04;;;;;;;17.05;13.52;;;14.10;99.90;;;14.11;100.00;101132.97;4976449;28;20065;-78
2022/05/06 03:03:36;;;;;;;15.70;13.40;;;14.90;99.90;;;14.13;100.00;101133.81;4977079;28;20503;-78
2022/05/06 03:06:10;;;;;;;20.52;13.57;;;14.10;99.90;;;14.15;100.00;101126.69;5009930;28;20074;-78
2022/05/06 03:08:39;;;;;;;14.88;13.10;;;14.30;99.90;;;14.14;100.00;101118.78;4977311;28;20054;-78
2022/05/06 03:11:07;;;;;;;16.08;12.65;;;14.40;99.90;;;14.05;100.00;101122.53;4995201;28;20038;-78
2022/05/06 03:13:41;;;;;;;17.65;12.82;;;15.20;99.90;;;14.04;100.00;101120.81;4997436;28;20050;-79
2022/05/06 03:16:12;;;;;;;18.13;14.50;;;14.00;99.90;;;14.01;100.00;101120.91;4997764;28;20046;-80
2022/05/06 03:18:39;;;;;;;17.40;13.05;;;14.00;99.90;;;14.02;100.00;101126.13;4996663;28;20054;-79
2022/05/06 03:21:06;;;;;;;15.40;13.85;;;13.90;99.90;;;13.99;100.00;101123.56;4982107;28;20121;-79
2022/05/06 03:23:33;;;;;;;15.88;12.65;;;14.20;99.90;;;14.01;100.00;101124.41;5015201;28;20046;-80
2022/05/06 03:26:02;;;;;;;14.88;13.27;;;14.00;99.90;;;14.02;100.00;101133.22;4998424;28;20057;-80
2022/05/06 03:28:31;;;;;;;15.75;12.90;;;14.00;99.90;;;14.03;100.00;101125.22;5014252;28;20050;-80
2022/05/06 03:30:59;;;;;;;15.43;13.15;;;14.20;99.90;;;14.02;100.00;101122.63;5013539;28;20084;-79
2022/05/06 03:33:33;;;;;;;16.13;12.98;;;14.00;99.90;;;13.97;100.00;101116.56;4997424;28;20142;-80
2022/05/06 03:36:11;;;;;;;14.85;13.23;;;13.90;99.90;;;13.97;100.00;101119.22;5014102;28;20511;-79
2022/05/06 03:38:50;;;;;;;15.15;13.55;;;14.60;99.90;;;13.85;100.00;101109.84;4994926;28;20105;-80
2022/05/06 03:41:21;;;;;;;14.90;13.32;;;14.10;99.90;;;13.89;100.00;101115.00;5012507;28;20054;-79
2022/05/06 03:43:51;;;;;;;15.02;12.35;;;15.00;99.90;;;13.88;100.00;101115.94;4997115;28;20046;-79
2022/05/06 03:46:21;;;;;;;;;;;13.90;99.90;;;13.90;100.00;101121.19;4997401;28;20050;-79
2022/05/06 03:48:51;;;;;;;15.23;12.48;;;13.00;99.90;;;13.81;100.00;101110.84;4995392;28;19949;-79
2022/05/06 03:51:22;;;;;;;;;;;13.80;99.90;;;13.84;100.00;101122.22;4997268;28;20114;-79
2022/05/06 03:54:01;;;;;;;13.77;12.38;;;13.70;99.90;;;13.80;100.00;101123.16;4995141;28;19926;-79
2022/05/06 03:56:30;;;;;;;15.30;12.63;;;15.00;99.90;;;13.75;100.00;101115.38;4996582;28;20045;-79
2022/05/06 03:59:00;;;;;;;17.30;13.52;;;13.80;99.90;;;13.70;100.00;101126.97;4995031;28;20145;-80
2022/05/06 04:01:28;;;;;;;16.45;12.88;;;14.40;99.90;;;13.68;100.00;101131.44;4998064;28;20113;-80
2022/05/06 04:03:57;;;;;;;15.13;12.18;;;14.20;99.90;;;13.66;100.00;101133.22;4999253;28;20057;-78
2022/05/06 04:06:29;;;;;;;16.95;13.18;;;13.70;99.90;;;13.68;100.00;101139.38;4986999;28;20042;-79
2022/05/06 04:08:58;;;;;;;15.07;13.13;;;13.70;99.90;;;13.65;100.00;101127.09;4972210;28;20661;-79
2022/05/06 04:11:28;;;;;;;;;;;13.70;99.90;;;13.66;100.00;101136.75;4987431;28;20067;-79
2022/05/06 04:14:00;;;;;;;16.73;14.65;;;13.60;99.90;;;13.57;100.00;101134.31;4988863;28;19930;-80
2022/05/06 04:16:30;;;;;;;15.73;12.90;;;12.70;99.90;;;13.61;100.00;101146.59;4991162;28;20145;-78
2022/05/06 04:19:01;;;;;;;14.05;12.60;;;13.60;99.90;;;13.60;100.00;101147.50;4989249;28;20042;-78
2022/05/06 04:24:17;;;;;;;12.88;11.45;;;14.10;99.90;;;13.55;100.00;101149.34;5029943;28;20051;-78
2022/05/06 04:26:45;;;;;;;18.10;12.50;;;13.60;99.90;;;13.46;100.00;101148.69;4992045;28;20034;-79
2022/05/06 04:29:12;;;;;;;14.70;12.23;;;13.50;99.90;;;13.57;100.00;101160.75;5020109;28;20050;-79
2022/05/06 04:31:46;;;;;;;17.75;13.75;;;13.60;99.90;;;13.49;100.00;101154.81;5004211;28;20046;-79
2022/05/06 04:34:13;;;;;;;23.08;19.10;;;15.00;99.90;;;13.50;100.00;101161.81;5017223;28;20054;-79
2022/05/06 04:36:42;;;;;;;19.23;16.85;;;13.50;99.90;;;13.54;100.00;101161.72;4996530;28;20407;-79
2022/05/06 04:39:11;;;;;;;15.85;14.05;;;13.50;99.90;;;13.49;100.00;101171.53;4981486;28;20050;-79
2022/05/06 04:41:45;;;;;;;17.40;13.23;;;13.60;99.90;;;13.45;100.00;101168.09;4986654;28;20081;-79
2022/05/06 04:44:14;;;;;;;14.07;12.52;;;13.50;99.90;;;13.42;100.00;101169.91;4997107;28;20043;-79
2022/05/06 04:46:41;;;;;;;15.18;12.00;;;13.50;99.90;;;13.44;100.00;101173.41;4971114;28;20055;-80
2022/05/06 04:49:09;;;;;;;14.32;11.32;;;13.50;99.90;;;13.52;100.00;101174.13;4987963;28;20074;-79
2022/05/06 04:51:37;;;;;;;14.65;10.32;;;13.50;99.90;;;13.40;100.00;101184.94;4986594;28;20054;-80
2022/05/06 04:54:06;;;;;;;16.10;11.10;;;13.50;99.90;;;13.46;100.00;101185.69;4955817;28;20688;-80
2022/05/06 04:56:34;;;;;;;16.30;10.38;;;13.40;99.90;;;13.43;100.00;101182.22;4990248;28;20045;-80
2022/05/06 04:59:09;;;;;;;12.48;10.20;;;13.40;99.90;;;13.46;100.00;101188.34;5013921;28;20056;-81
2022/05/06 05:01:43;;;;;;;15.93;9.65;;;13.40;99.90;;;13.45;100.00;101191.88;5007686;28;20427;-79
2022/05/06 05:04:11;;;;;;;12.50;8.23;;;13.50;99.90;;;13.47;100.00;101197.13;4976562;28;20048;-79
2022/05/06 05:06:39;;;;;;;14.48;8.95;;;13.50;99.90;;;13.46;100.00;101195.38;5007991;28;20050;-79
2022/05/06 05:09:10;;;;;;;12.05;8.45;;;13.50;99.90;;;13.49;100.00;101200.59;4976307;28;20058;-80
2022/05/06 05:11:40;;;;;;;9.25;8.35;;;13.40;99.90;;;13.44;100.00;101202.50;4975648;28;20039;-79
2022/05/06 05:14:13;;;;;;;10.50;7.75;;;13.40;99.90;;;13.49;100.00;101205.88;5005539;28;20074;-80
2022/05/06 05:16:40;;;;;;;7.90;7.07;;;13.40;99.90;;;13.47;100.00;101205.94;5004328;28;20050;-79
2022/05/06 05:19:08;;;;;;;12.23;7.30;;;13.50;99.90;;;13.47;100.00;101205.94;4987150;28;20051;-79
2022/05/06 05:21:44;;;;;;;11.80;7.78;;;13.50;99.90;;;13.55;100.00;101207.53;4988075;28;20050;-80
2022/05/06 05:24:11;;;;;;;15.48;13.88;;;13.50;99.90;;;13.51;100.00;101197.94;4987686;28;20150;-79
2022/05/06 05:26:39;;;;;;;19.90;15.95;;;13.60;99.90;;;13.54;100.00;101209.31;5004724;28;20057;-79
2022/05/06 05:29:06;;;;;;;27.30;24.40;;;13.50;99.90;;;13.50;100.00;101198.84;4987893;28;20110;-79
2022/05/06 05:31:35;;;;;;;20.35;17.70;;;13.70;99.90;;;13.51;100.00;101198.81;4972522;28;20078;-79
2022/05/06 05:34:02;;;;;;;14.88;13.25;;;13.50;99.90;;;13.51;100.00;101198.81;4954350;28;20089;-79
2022/05/06 05:36:30;;;;;;;11.82;9.63;;;13.50;99.90;;;13.57;100.00;101205.72;5002580;28;20047;-79
2022/05/06 05:38:58;;;;;;;9.65;7.93;;;13.60;99.90;;;13.55;100.00;101208.41;4985996;28;20153;-78
2022/05/06 05:41:27;;;;;;;11.32;8.35;;;13.60;99.90;;;13.49;100.00;101203.25;4986873;28;20061;-79
2022/05/06 05:49:33;;;;;;;12.55;7.10;;;13.60;99.90;;;13.65;100.00;101202.88;4985470;28;20109;-78
2022/05/06 05:52:01;;;;;;;8.30;6.78;;;13.60;99.90;;;13.64;100.00;101202.03;4985600;28;20061;-79
2022/05/06 05:54:28;;;;;;;8.95;7.05;;;13.60;99.90;;;13.65;100.00;101202.88;4968622;28;20533;-79
2022/05/06 05:56:56;;;;;;;12.32;7.00;;;13.60;99.90;;;13.68;100.00;101203.69;4984860;28;20050;-79
2022/05/06 05:59:24;;;;;;;9.98;7.80;;;13.60;99.90;;;13.70;100.00;101211.59;4984156;28;20058;-79
2022/05/06 06:01:53;;;;;;;12.68;7.35;;;13.70;99.90;;;13.73;100.00;101211.53;4985252;28;20474;-80
2022/05/06 06:04:21;;;;;;;10.18;8.10;;;13.70;99.90;;;13.80;100.00;101206.97;4984696;28;20039;-78
2022/05/06 06:06:48;;;;;;;9.38;7.55;;;13.70;99.90;;;13.82;100.00;101216.59;4969245;28;20049;-79
2022/05/06 06:09:20;;;;;;;10.82;7.40;;;13.80;99.90;;;13.86;100.00;101209.44;4985054;28;20050;-78
2022/05/06 06:11:49;;;;;;;7.13;6.35;;;13.80;99.90;;;13.89;100.00;101212.88;4995290;28;20074;-78
2022/05/06 06:14:17;;;;;;;7.90;7.00;;;13.90;99.90;;;13.87;100.00;101216.47;4995229;28;20119;-77
2022/05/06 06:16:44;;;;;;;8.80;6.57;;;13.80;99.90;;;13.89;100.00;101214.66;4997353;28;20067;-78
2022/05/06 06:19:13;;;;;;;9.50;6.40;;;13.90;99.90;;;13.97;100.00;101202.13;5000890;28;20073;-78
2022/05/06 06:21:44;;;;;;;8.90;5.88;;;13.90;99.90;;;14.01;100.00;101214.34;5013248;28;20049;-77
2022/05/06 06:24:15;;;;;;;10.27;6.53;;;14.00;99.90;;;14.05;100.00;101212.50;4998608;28;20054;-78
2022/05/06 06:26:43;;;;;;;7.93;6.22;;;14.00;99.90;;;14.11;100.00;101208.84;4973959;28;20073;-79
2022/05/06 06:29:15;;;;;;;8.98;6.53;;;14.10;99.90;;;14.13;100.00;101220.25;4989033;28;20057;-79
2022/05/06 06:31:43;;;;;;;11.77;6.40;;;14.10;99.90;;;14.10;100.00;101220.34;4973193;28;20047;-79
2022/05/06 06:34:10;;;;;;;10.90;6.07;;;14.10;99.90;;;14.14;100.00;101212.28;5006724;28;20054;-79
2022/05/06 06:36:39;;;;;;;8.43;6.53;;;14.10;99.90;;;14.17;100.00;101217.50;4993310;28;20042;-78
2022/05/06 06:39:07;;;;;;;7.40;6.68;;;14.20;99.90;;;14.13;100.00;101210.56;4992635;28;20539;-78
2022/05/06 06:41:38;;;;;;;14.43;7.18;;;14.10;99.90;;;14.23;100.00;101212.94;4996069;28;20065;-78
2022/05/06 06:44:05;;;;;;;8.88;7.13;;;14.20;99.90;;;14.22;100.00;101219.16;4995496;28;20107;-78
2022/05/06 06:46:53;;;;;;;8.70;6.60;;;14.20;99.90;;;14.25;100.00;101222.59;5010138;28;20132;-78
2022/05/06 06:49:45;;;;;;;12.90;6.85;;;14.20;99.90;;;14.16;100.00;101212.22;4983328;28;20501;-77
2022/05/06 06:52:32;;;;;;;9.55;6.80;;;14.20;99.90;;;14.22;100.00;101224.44;5003743;28;20050;-78
2022/05/06 06:54:59;;;;;;;11.15;7.05;;;14.20;99.90;;;14.15;100.00;101218.44;4995823;28;20078;-80
2022/05/06 06:57:30;;;;;;;8.85;6.88;;;14.20;99.90;;;14.23;100.00;101231.47;4999443;28;20073;-79
2022/05/06 06:59:57;;;;;;;7.25;6.55;;;14.20;99.90;;;14.30;100.00;101230.44;4981602;28;20054;-78
2022/05/06 07:02:25;;;;;;;8.13;6.93;;;14.30;99.90;;;14.33;100.00;101231.19;4983214;28;20141;-78
2022/05/06 07:04:52;;;;;;;8.73;7.38;;;14.30;99.90;;;14.35;100.00;101227.63;4998123;28;20032;-78
2022/05/06 07:12:53;;;;;;;11.38;6.78;;;14.40;99.90;;;14.46;100.00;101237.06;4999637;28;20042;-79
2022/05/06 07:15:20;;;;;;;10.23;7.43;;;14.40;99.90;;;14.57;100.00;101242.06;4997677;28;20053;-78
2022/05/06 07:17:47;;;;;;;7.95;6.45;;;14.50;99.90;;;14.51;100.00;101231.63;4997318;28;20061;-79
2022/05/06 07:20:14;;;;;;;12.10;6.15;;;14.50;99.90;;;14.53;100.00;101243.06;4996462;28;20450;-78
2022/05/06 07:22:42;;;;;;;7.25;6.50;;;14.50;99.90;;;14.51;100.00;101236.06;5012051;28;20149;-75
2022/05/06 07:25:15;;;;;;;11.18;6.93;;;14.60;99.90;;;14.64;100.00;101236.59;4991594;28;20121;-75
2022/05/06 07:27:43;;;;;;;7.80;6.95;;;14.60;99.90;;;14.54;100.00;101239.50;4991020;28;20042;-75
2022/05/06 07:30:11;;;;;;;12.75;6.75;;;14.70;99.70;;;14.69;100.00;101243.50;5005612;28;20088;-75
2022/05/06 07:32:38;;;;;;;8.48;6.45;;;14.70;99.90;;;14.70;100.00;101232.00;4991392;28;20042;-76
2022/05/06 07:35:06;;;;;;;11.70;7.05;;;14.70;99.70;;;14.68;100.00;101233.81;5006349;28;20054;-75
2022/05/06 07:37:33;;;;;;;12.43;7.28;;;14.70;99.50;;;14.72;100.00;101232.84;5005845;28;20046;-75
2022/05/06 07:40:03;;;;;;;10.20;6.80;;;14.80;99.50;;;14.83;100.00;101237.00;4973152;28;20050;-75
2022/05/06 07:42:33;;;;;;;8.73;7.47;;;14.80;99.50;;;14.86;100.00;101232.47;4973311;28;20124;-75
2022/05/06 07:45:00;;;;;;;9.95;6.47;;;14.90;99.30;;;14.95;100.00;101235.75;5004830;28;20038;-75
2022/05/06 07:47:27;;;;;;;8.20;7.22;;;14.90;99.30;;;14.99;100.00;101240.94;5005088;28;20038;-75
2022/05/06 07:50:16;;;;;;;16.00;7.22;;;15.30;99.20;;;15.05;100.00;101239.00;5003412;28;20058;-80
2022/05/06 07:52:43;;;;;;;9.10;7.40;;;15.00;99.00;;;15.14;100.00;101242.28;4993444;28;20101;-78
2022/05/06 07:55:13;;;;;;;7.43;6.45;;;15.40;99.20;;;15.25;100.00;101238.44;5010773;28;20058;-78
2022/05/06 07:57:41;;;;;;;11.25;7.32;;;15.10;98.80;;;15.36;100.00;101240.75;5009350;28;20074;-77
2022/05/06 08:00:09;;;;;;;9.82;6.28;;;15.20;99.00;;;15.35;100.00;101233.72;5009411;28;20054;-78
2022/05/06 08:05:27;;;;;;;8.50;6.68;;;15.30;98.60;;;15.41;100.00;101231.75;4993284;28;20518;-77
2022/05/06 08:07:55;;;;;;;8.00;5.93;;;15.40;98.60;;;15.42;100.00;101233.50;5007739;28;20104;-77
2022/05/06 08:10:22;;;;;;;12.95;6.68;;;15.40;98.60;;;15.43;100.00;101232.56;4991724;28;20145;-78
2022/05/06 08:12:50;;;;;;;9.05;6.30;;;15.40;98.60;;;15.49;100.00;101238.63;5009342;28;20052;-78
2022/05/06 08:15:17;;;;;;;8.75;6.43;;;15.40;98.60;;;15.56;100.00;101235.75;5009153;28;20149;-78
2022/05/06 08:17:44;;;;;;;11.57;7.60;;;15.50;98.50;;;15.63;100.00;101233.75;5010597;28;20046;-78
2022/05/06 08:20:12;;;;;;;8.80;6.30;;;15.50;98.50;;;15.61;100.00;101232.94;5010208;28;20065;-78
2022/05/06 08:22:39;;;;;;;9.43;7.13;;;15.60;98.40;;;15.69;100.00;101240.66;4979406;28;20057;-78
2022/05/06 08:25:11;;;;;;;12.45;7.93;;;15.60;98.50;;;15.76;100.00;101243.97;4957153;28;20058;-78
2022/05/06 08:27:53;;;;;;;11.02;7.45;;;15.70;98.10;;;15.88;100.00;101249.75;4987687;28;20054;-78
2022/05/06 08:30:20;;;;;;;11.35;6.47;;;15.80;98.30;;;15.91;100.00;101251.47;4982950;28;20046;-78
2022/05/06 08:32:48;;;;;;;10.73;7.40;;;15.80;98.10;;;15.94;100.00;101254.03;4976541;28;20443;-78
2022/05/06 08:35:15;;;;;;;10.90;6.80;;;15.90;98.00;;;16.13;100.00;101246.31;4976795;28;20074;-77
2022/05/06 08:37:47;;;;;;;9.00;6.55;;;15.90;98.30;;;16.17;100.00;101249.75;4992840;28;20054;-78
2022/05/06 08:40:31;;;;;;;7.78;6.50;;;16.10;98.20;;;16.34;100.00;101249.19;4960508;28;20131;-78
2022/05/06 08:42:58;;;;;;;10.20;6.85;;;16.10;97.90;;;16.41;100.00;101252.50;4992818;28;20523;-78
2022/05/06 08:51:04;;;;;;;9.80;7.10;;;16.40;97.30;;;16.63;100.00;101252.63;4970460;28;20047;-78
2022/05/06 08:53:42;;;;;;;7.68;6.20;;;16.70;97.50;;;16.69;100.00;101252.41;4957218;28;20081;-79
2022/05/06 08:56:09;;;;;;;9.90;6.68;;;16.70;97.30;;;16.70;100.00;101250.59;4951623;28;20061;-80
2022/05/06 08:58:40;;;;;;;8.27;5.80;;;16.70;97.20;;;16.83;100.00;101251.03;5008093;28;20104;-77
2022/05/06 09:01:11;;;;;;;7.85;6.15;;;16.70;97.10;;;16.90;100.00;101249.03;5004670;28;20113;-74
2022/05/06 09:03:49;;;;;;;8.35;5.75;;;16.80;96.70;;;16.99;100.00;101244.28;5003248;28;20597;-74
2022/05/06 09:06:28;;;;;;;11.23;6.63;;;16.90;96.80;;;17.07;100.00;101240.44;4987493;28;20109;-74
2022/05/06 09:09:00;;;;;;;8.52;5.90;;;16.90;96.80;;;17.17;100.00;101248.94;4997545;28;20038;-74
2022/05/06 09:16:39;;;;;;;9.15;6.28;;;17.10;96.60;;;17.31;100.00;101249.28;4968530;28;20101;-74
2022/05/06 09:17:22;;;;;;;;;;;17.20;96.50;;;17.42;100.00;101246.22;4981964;28;20514;-73
2022/05/06 09:19:50;;;;;;;7.82;4.90;;;17.20;96.20;;;17.54;100.00;101236.91;4994068;28;19926;-74
2022/05/06 09:22:17;;;;;;;8.73;5.35;;;17.30;96.30;;;17.72;100.00;101243.28;4987184;28;20363;-74
2022/05/06 09:24:48;;;;;;;6.93;4.50;;;17.40;96.40;;;17.82;100.00;101247.28;4996678;28;20038;-75
2022/05/06 09:27:17;;;;;;;5.93;4.25;;;17.50;96.00;;;17.90;100.00;101240.81;5003387;28;20125;-74
2022/05/06 09:29:51;;;;;;;7.57;5.30;;;17.60;95.50;;;17.98;100.00;101246.66;4986369;28;20603;-74
2022/05/06 09:32:27;;;;;;;8.65;5.50;;;17.70;95.70;;;18.02;100.00;101250.06;5002716;28;20164;-74
2022/05/06 09:35:15;;;;;;;8.55;5.00;;;17.80;95.70;;;18.12;96.86;101248.81;5003387;28;20057;-74
2022/05/06 09:37:49;;;;;;;6.40;4.35;;;17.90;95.00;;;18.19;98.10;101244.94;4988472;28;20046;-74
2022/05/06 09:40:30;;;;;;;6.85;4.03;;;18.00;95.00;;;18.30;81.29;101244.47;4988567;28;20482;-76
2022/05/06 09:43:00;;;;;;;4.50;3.58;;;18.00;93.80;;;18.36;81.62;101240.69;4987535;28;20126;-74
2022/05/06 09:45:37;;;;;;;5.47;3.28;;;18.10;93.20;;;18.47;75.18;101232.22;5003179;28;20038;-75
2022/05/06 09:48:12;;;;;;;5.18;3.30;;;18.20;92.70;;;18.61;76.98;101239.63;5002092;28;20070;-72
2022/05/06 09:50:40;;;;;;;6.60;3.22;;;18.30;92.80;;;18.57;69.95;101238.91;4987073;28;20053;-74
2022/05/06 09:53:18;;;;;;;6.32;2.42;;;18.40;91.90;;;18.74;70.55;101230.16;4990974;28;20089;-74
2022/05/06 09:55:47;;;;;;;5.05;3.65;;;18.50;92.00;;;18.76;78.53;101238.06;5009902;28;20124;-76
2022/05/06 09:58:17;;;;;;;7.18;3.97;;;18.50;92.50;;;18.81;83.93;101231.63;4994359;28;20077;-75
2022/05/06 10:00:44;;;;;;;11.35;4.50;;;18.60;93.00;;;18.75;83.51;101237.22;5011547;28;20046;-76
2022/05/06 10:03:12;;;;;;;7.28;3.83;;;18.70;93.00;;;18.81;84.11;101236.06;4992325;28;20069;-75
2022/05/06 10:05:40;;;;;;;7.00;3.67;;;18.70;93.00;;;18.82;79.45;101236.00;4991306;28;20772;-75
2022/05/06 10:08:16;;;;;;;9.15;4.13;;;18.70;92.60;;;18.85;74.04;101232.34;4992601;28;20709;-75
2022/05/06 10:10:59;;;;;;;5.95;3.35;;;18.70;91.80;;;18.88;70.95;101228.66;5008762;28;20043;-74
2022/05/06 10:13:32;;;;;;;5.47;3.80;;;18.80;91.50;;;18.88;72.70;101220.66;4994576;28;20035;-75
2022/05/06 10:15:59;;;;;;;6.28;3.13;;;18.80;91.50;;;18.92;71.09;101223.13;4989063;28;20440;-75
2022/05/06 10:18:35;;;;;;;6.55;3.20;;;18.80;91.30;;;19.02;65.99;101230.75;5007597;28;20491;-75
2022/05/06 10:21:14;;;;;;;10.05;3.10;;;18.80;90.60;;;19.06;62.50;101230.53;4992539;28;20122;-75
2022/05/06 10:23:55;;;;;;;4.28;2.78;;;18.90;90.20;;;19.12;61.73;101226.69;4986539;28;20495;-75
2022/05/06 10:26:50;;;;;;;3.33;2.85;;;18.90;89.80;;;19.15;58.68;101220.38;4990916;28;20042;-75
2022/05/06 10:32:35;;;;;;;3.05;2.25;;;19.00;88.50;;;19.24;57.42;101223.47;4990956;28;20653;-75
2022/05/06 10:35:02;;;;;;;4.60;2.50;;;19.10;87.30;;;19.40;57.60;101212.06;4994157;28;20042;-75
2022/05/06 10:37:41;;;;;;;4.63;2.65;;;19.10;87.60;;;19.42;56.66;101210.19;4991678;28;20680;-75
2022/05/06 10:40:23;;;;;;;4.15;2.42;;;19.20;87.00;;;19.58;54.33;101213.00;4990524;28;20035;-76
2022/05/06 10:42:52;;;;;;;3.90;1.80;;;19.30;85.60;;;19.67;54.51;101211.69;4995733;28;20078;-78
2022/05/06 10:45:35;;;;;;;3.20;2.45;;;19.40;85.60;;;19.77;52.85;101220.09;4997352;28;20077;-82
2022/05/06 10:48:19;;;;;;;6.38;2.58;;;19.50;84.10;;;19.70;51.37;101208.84;4979696;28;20046;-78
2022/05/06 10:50:46;;;;;;;6.03;2.30;;;19.50;82.60;;;19.77;51.56;101210.28;4977994;28;20077;-79